sensor_id;sensor_type;location;lat;lon;timestamp;P1;durP1;ratioP1;P2;durP2;ratioP2
76761;SDS011;65705;51.032;13.790;2023-08-07T00:00:34;4.65;;;1.50;;
76761;SDS011;65705;51.032;13.790;2023-08-07T00:03:00;2.97;;;1.20;;
76761;SDS011;65705;51.032;13.790;2023-08-07T00:05:25;4.72;;;1.13;;
76761;SDS011;65705;51.032;13.790;2023-08-07T00:07:51;2.60;;;1.20;;
76761;SDS011;65705;51.032;13.790;2023-08-07T00:10:17;3.42;;;1.42;;
76761;SDS011;65705;51.032;13.790;2023-08-07T00:12:43;3.85;;;1.30;;
76761;SDS011;65705;51.032;13.790;2023-08-07T00:15:09;5.07;;;1.40;;
76761;SDS011;65705;51.032;13.790;2023-08-07T00:17:35;3.13;;;1.30;;
76761;SDS011;65705;51.032;13.790;2023-08-07T00:20:01;2.90;;;1.33;;
76761;SDS011;65705;51.032;13.790;2023-08-07T00:22:27;2.47;;;1.25;;
76761;SDS011;65705;51.032;13.790;2023-08-07T00:24:53;3.45;;;1.50;;
76761;SDS011;65705;51.032;13.790;2023-08-07T00:27:19;3.40;;;1.48;;
76761;SDS011;65705;51.032;13.790;2023-08-07T00:29:45;5.20;;;1.27;;
76761;SDS011;65705;51.032;13.790;2023-08-07T00:32:10;2.90;;;1.20;;
76761;SDS011;65705;51.032;13.790;2023-08-07T00:34:36;3.15;;;1.20;;
76761;SDS011;65705;51.032;13.790;2023-08-07T00:37:02;2.75;;;1.40;;
76761;SDS011;65705;51.032;13.790;2023-08-07T00:39:27;1.88;;;1.20;;
76761;SDS011;65705;51.032;13.790;2023-08-07T00:41:53;4.13;;;1.52;;
76761;SDS011;65705;51.032;13.790;2023-08-07T00:44:19;2.42;;;1.30;;
76761;SDS011;65705;51.032;13.790;2023-08-07T00:46:45;2.05;;;1.13;;
76761;SDS011;65705;51.032;13.790;2023-08-07T00:49:11;4.25;;;1.30;;
76761;SDS011;65705;51.032;13.790;2023-08-07T00:51:38;2.10;;;1.10;;
76761;SDS011;65705;51.032;13.790;2023-08-07T00:54:05;4.82;;;1.17;;
76761;SDS011;65705;51.032;13.790;2023-08-07T00:56:33;2.72;;;1.17;;
76761;SDS011;65705;51.032;13.790;2023-08-07T00:58:59;4.32;;;1.42;;
76761;SDS011;65705;51.032;13.790;2023-08-07T01:01:26;4.88;;;1.42;;
76761;SDS011;65705;51.032;13.790;2023-08-07T01:03:52;3.22;;;1.48;;
76761;SDS011;65705;51.032;13.790;2023-08-07T01:06:19;4.35;;;1.65;;
76761;SDS011;65705;51.032;13.790;2023-08-07T01:08:44;3.60;;;1.60;;
76761;SDS011;65705;51.032;13.790;2023-08-07T01:19:27;3.95;;;1.95;;
76761;SDS011;65705;51.032;13.790;2023-08-07T01:24:38;3.40;;;2.08;;
76761;SDS011;65705;51.032;13.790;2023-08-07T01:29:44;3.95;;;1.83;;
76761;SDS011;65705;51.032;13.790;2023-08-07T01:32:14;3.45;;;2.30;;
76761;SDS011;65705;51.032;13.790;2023-08-07T01:34:46;3.65;;;1.80;;
76761;SDS011;65705;51.032;13.790;2023-08-07T01:37:14;5.47;;;2.28;;
76761;SDS011;65705;51.032;13.790;2023-08-07T01:39:41;3.08;;;2.17;;
76761;SDS011;65705;51.032;13.790;2023-08-07T01:42:08;2.42;;;1.85;;
76761;SDS011;65705;51.032;13.790;2023-08-07T01:44:36;2.35;;;1.70;;
76761;SDS011;65705;51.032;13.790;2023-08-07T01:47:02;2.70;;;1.80;;
76761;SDS011;65705;51.032;13.790;2023-08-07T01:49:28;3.92;;;1.80;;
76761;SDS011;65705;51.032;13.790;2023-08-07T01:51:54;4.88;;;1.90;;
76761;SDS011;65705;51.032;13.790;2023-08-07T01:54:19;2.78;;;1.70;;
76761;SDS011;65705;51.032;13.790;2023-08-07T01:56:45;2.17;;;1.38;;
76761;SDS011;65705;51.032;13.790;2023-08-07T01:59:11;3.05;;;1.83;;
76761;SDS011;65705;51.032;13.790;2023-08-07T02:01:37;3.25;;;1.90;;
76761;SDS011;65705;51.032;13.790;2023-08-07T02:04:02;3.03;;;1.90;;
76761;SDS011;65705;51.032;13.790;2023-08-07T02:06:28;3.13;;;1.95;;
76761;SDS011;65705;51.032;13.790;2023-08-07T02:08:54;2.13;;;1.70;;
76761;SDS011;65705;51.032;13.790;2023-08-07T02:11:20;2.95;;;1.98;;
76761;SDS011;65705;51.032;13.790;2023-08-07T02:13:45;3.40;;;2.00;;
76761;SDS011;65705;51.032;13.790;2023-08-07T02:16:11;3.97;;;2.30;;
76761;SDS011;65705;51.032;13.790;2023-08-07T02:18:37;4.05;;;2.33;;
76761;SDS011;65705;51.032;13.790;2023-08-07T02:21:02;5.30;;;2.40;;
76761;SDS011;65705;51.032;13.790;2023-08-07T02:23:28;5.00;;;2.50;;
76761;SDS011;65705;51.032;13.790;2023-08-07T02:25:54;6.57;;;2.70;;
76761;SDS011;65705;51.032;13.790;2023-08-07T02:28:20;6.85;;;2.40;;
76761;SDS011;65705;51.032;13.790;2023-08-07T02:30:46;4.93;;;2.03;;
76761;SDS011;65705;51.032;13.790;2023-08-07T02:33:16;5.07;;;2.60;;
76761;SDS011;65705;51.032;13.790;2023-08-07T02:35:43;4.22;;;2.85;;
76761;SDS011;65705;51.032;13.790;2023-08-07T02:38:10;6.70;;;3.20;;
76761;SDS011;65705;51.032;13.790;2023-08-07T02:40:35;5.45;;;3.30;;
76761;SDS011;65705;51.032;13.790;2023-08-07T02:43:01;8.18;;;2.88;;
76761;SDS011;65705;51.032;13.790;2023-08-07T02:45:27;7.22;;;3.00;;
76761;SDS011;65705;51.032;13.790;2023-08-07T02:47:53;5.93;;;2.78;;
76761;SDS011;65705;51.032;13.790;2023-08-07T02:50:18;7.05;;;3.03;;
76761;SDS011;65705;51.032;13.790;2023-08-07T02:52:44;4.65;;;2.88;;
76761;SDS011;65705;51.032;13.790;2023-08-07T02:55:10;4.78;;;3.10;;
76761;SDS011;65705;51.032;13.790;2023-08-07T02:57:36;5.13;;;2.75;;
76761;SDS011;65705;51.032;13.790;2023-08-07T03:00:02;4.43;;;2.85;;
76761;SDS011;65705;51.032;13.790;2023-08-07T03:02:29;4.50;;;2.60;;
76761;SDS011;65705;51.032;13.790;2023-08-07T03:04:55;5.35;;;3.10;;
76761;SDS011;65705;51.032;13.790;2023-08-07T03:07:20;6.43;;;2.75;;
76761;SDS011;65705;51.032;13.790;2023-08-07T03:09:46;4.85;;;2.67;;
76761;SDS011;65705;51.032;13.790;2023-08-07T03:12:15;6.43;;;3.05;;
76761;SDS011;65705;51.032;13.790;2023-08-07T03:14:40;4.75;;;2.65;;
76761;SDS011;65705;51.032;13.790;2023-08-07T03:17:06;3.97;;;2.42;;
76761;SDS011;65705;51.032;13.790;2023-08-07T03:19:32;4.93;;;2.05;;
76761;SDS011;65705;51.032;13.790;2023-08-07T03:21:58;3.63;;;2.33;;
76761;SDS011;65705;51.032;13.790;2023-08-07T03:24:23;3.97;;;1.70;;
76761;SDS011;65705;51.032;13.790;2023-08-07T03:26:49;3.20;;;1.30;;
76761;SDS011;65705;51.032;13.790;2023-08-07T03:29:15;2.88;;;1.63;;
76761;SDS011;65705;51.032;13.790;2023-08-07T03:31:42;3.75;;;1.40;;
76761;SDS011;65705;51.032;13.790;2023-08-07T03:34:08;3.15;;;1.90;;
76761;SDS011;65705;51.032;13.790;2023-08-07T03:36:34;4.82;;;2.00;;
76761;SDS011;65705;51.032;13.790;2023-08-07T03:39:00;3.25;;;1.77;;
76761;SDS011;65705;51.032;13.790;2023-08-07T03:41:26;3.35;;;1.70;;
76761;SDS011;65705;51.032;13.790;2023-08-07T03:43:53;3.80;;;1.65;;
76761;SDS011;65705;51.032;13.790;2023-08-07T03:46:19;3.67;;;1.73;;
76761;SDS011;65705;51.032;13.790;2023-08-07T03:48:45;3.63;;;1.80;;
76761;SDS011;65705;51.032;13.790;2023-08-07T03:51:11;2.90;;;1.60;;
76761;SDS011;65705;51.032;13.790;2023-08-07T03:56:06;3.63;;;1.58;;
76761;SDS011;65705;51.032;13.790;2023-08-07T03:58:34;4.05;;;1.83;;
76761;SDS011;65705;51.032;13.790;2023-08-07T04:00:59;6.88;;;1.75;;
76761;SDS011;65705;51.032;13.790;2023-08-07T04:03:25;5.90;;;1.80;;
76761;SDS011;65705;51.032;13.790;2023-08-07T04:05:52;6.25;;;1.85;;
76761;SDS011;65705;51.032;13.790;2023-08-07T04:08:19;4.15;;;1.77;;
76761;SDS011;65705;51.032;13.790;2023-08-07T04:10:45;2.58;;;1.50;;
76761;SDS011;65705;51.032;13.790;2023-08-07T04:13:12;3.47;;;2.05;;
76761;SDS011;65705;51.032;13.790;2023-08-07T04:15:37;3.95;;;1.80;;
76761;SDS011;65705;51.032;13.790;2023-08-07T04:18:03;4.78;;;2.22;;
76761;SDS011;65705;51.032;13.790;2023-08-07T04:20:29;5.50;;;2.05;;
76761;SDS011;65705;51.032;13.790;2023-08-07T04:22:54;5.65;;;2.60;;
76761;SDS011;65705;51.032;13.790;2023-08-07T04:25:20;6.05;;;2.75;;
76761;SDS011;65705;51.032;13.790;2023-08-07T04:27:46;5.32;;;2.63;;
76761;SDS011;65705;51.032;13.790;2023-08-07T04:30:12;7.68;;;2.58;;
76761;SDS011;65705;51.032;13.790;2023-08-07T04:32:38;5.05;;;2.70;;
76761;SDS011;65705;51.032;13.790;2023-08-07T04:35:04;4.30;;;2.75;;
76761;SDS011;65705;51.032;13.790;2023-08-07T04:37:30;5.78;;;2.90;;
76761;SDS011;65705;51.032;13.790;2023-08-07T04:39:55;6.53;;;3.20;;
76761;SDS011;65705;51.032;13.790;2023-08-07T04:42:22;8.57;;;3.53;;
76761;SDS011;65705;51.032;13.790;2023-08-07T04:44:48;8.05;;;3.67;;
76761;SDS011;65705;51.032;13.790;2023-08-07T04:47:13;4.90;;;3.30;;
76761;SDS011;65705;51.032;13.790;2023-08-07T04:49:39;6.70;;;3.67;;
76761;SDS011;65705;51.032;13.790;2023-08-07T04:52:05;8.73;;;3.80;;
76761;SDS011;65705;51.032;13.790;2023-08-07T04:54:31;6.63;;;3.63;;
76761;SDS011;65705;51.032;13.790;2023-08-07T04:56:56;6.22;;;3.65;;
76761;SDS011;65705;51.032;13.790;2023-08-07T04:59:22;6.78;;;4.22;;
76761;SDS011;65705;51.032;13.790;2023-08-07T05:01:48;5.70;;;3.95;;
76761;SDS011;65705;51.032;13.790;2023-08-07T05:04:14;8.75;;;4.50;;
76761;SDS011;65705;51.032;13.790;2023-08-07T05:06:39;6.53;;;4.28;;
76761;SDS011;65705;51.032;13.790;2023-08-07T05:09:05;14.50;;;4.30;;
76761;SDS011;65705;51.032;13.790;2023-08-07T05:11:32;7.82;;;4.68;;
76761;SDS011;65705;51.032;13.790;2023-08-07T05:13:59;7.18;;;4.18;;
76761;SDS011;65705;51.032;13.790;2023-08-07T05:16:24;7.30;;;4.20;;
76761;SDS011;65705;51.032;13.790;2023-08-07T05:18:50;6.57;;;4.28;;
76761;SDS011;65705;51.032;13.790;2023-08-07T05:21:16;9.60;;;5.20;;
76761;SDS011;65705;51.032;13.790;2023-08-07T05:23:42;8.18;;;4.78;;
76761;SDS011;65705;51.032;13.790;2023-08-07T05:26:07;7.53;;;4.63;;
76761;SDS011;65705;51.032;13.790;2023-08-07T05:28:33;9.55;;;5.45;;
76761;SDS011;65705;51.032;13.790;2023-08-07T05:30:59;12.70;;;4.40;;
76761;SDS011;65705;51.032;13.790;2023-08-07T05:33:24;10.18;;;5.18;;
76761;SDS011;65705;51.032;13.790;2023-08-07T05:35:50;7.47;;;4.38;;
76761;SDS011;65705;51.032;13.790;2023-08-07T05:38:18;11.20;;;3.80;;
76761;SDS011;65705;51.032;13.790;2023-08-07T05:40:43;9.65;;;4.20;;
76761;SDS011;65705;51.032;13.790;2023-08-07T05:43:09;8.50;;;3.63;;
76761;SDS011;65705;51.032;13.790;2023-08-07T05:45:36;5.95;;;3.42;;
76761;SDS011;65705;51.032;13.790;2023-08-07T05:48:02;5.50;;;3.20;;
76761;SDS011;65705;51.032;13.790;2023-08-07T05:50:28;5.60;;;3.47;;
76761;SDS011;65705;51.032;13.790;2023-08-07T05:52:53;4.65;;;2.90;;
76761;SDS011;65705;51.032;13.790;2023-08-07T05:55:19;6.00;;;2.70;;
76761;SDS011;65705;51.032;13.790;2023-08-07T05:57:45;8.75;;;3.20;;
76761;SDS011;65705;51.032;13.790;2023-08-07T06:00:11;7.13;;;2.80;;
76761;SDS011;65705;51.032;13.790;2023-08-07T06:02:42;8.20;;;3.08;;
76761;SDS011;65705;51.032;13.790;2023-08-07T06:05:08;4.80;;;2.65;;
76761;SDS011;65705;51.032;13.790;2023-08-07T06:07:36;5.72;;;2.90;;
76761;SDS011;65705;51.032;13.790;2023-08-07T06:10:01;4.40;;;2.50;;
76761;SDS011;65705;51.032;13.790;2023-08-07T06:12:27;5.95;;;2.40;;
76761;SDS011;65705;51.032;13.790;2023-08-07T06:14:53;5.40;;;2.70;;
76761;SDS011;65705;51.032;13.790;2023-08-07T06:17:19;4.43;;;2.40;;
76761;SDS011;65705;51.032;13.790;2023-08-07T06:19:44;4.60;;;2.70;;
76761;SDS011;65705;51.032;13.790;2023-08-07T06:22:10;6.97;;;2.70;;
76761;SDS011;65705;51.032;13.790;2023-08-07T06:24:36;4.80;;;2.20;;
76761;SDS011;65705;51.032;13.790;2023-08-07T06:27:02;4.25;;;2.55;;
76761;SDS011;65705;51.032;13.790;2023-08-07T06:29:28;3.42;;;1.95;;
76761;SDS011;65705;51.032;13.790;2023-08-07T06:31:54;15.20;;;2.65;;
76761;SDS011;65705;51.032;13.790;2023-08-07T06:34:20;3.75;;;2.03;;
76761;SDS011;65705;51.032;13.790;2023-08-07T06:36:45;6.15;;;2.20;;
76761;SDS011;65705;51.032;13.790;2023-08-07T06:39:11;3.85;;;2.00;;
76761;SDS011;65705;51.032;13.790;2023-08-07T06:41:37;5.50;;;1.98;;
76761;SDS011;65705;51.032;13.790;2023-08-07T06:44:03;6.63;;;1.90;;
76761;SDS011;65705;51.032;13.790;2023-08-07T06:46:29;4.75;;;1.92;;
76761;SDS011;65705;51.032;13.790;2023-08-07T06:48:55;3.10;;;1.60;;
76761;SDS011;65705;51.032;13.790;2023-08-07T06:51:20;5.32;;;1.92;;
76761;SDS011;65705;51.032;13.790;2023-08-07T06:53:46;3.63;;;1.88;;
76761;SDS011;65705;51.032;13.790;2023-08-07T06:56:11;6.45;;;1.77;;
76761;SDS011;65705;51.032;13.790;2023-08-07T06:58:37;3.65;;;1.60;;
76761;SDS011;65705;51.032;13.790;2023-08-07T07:01:03;4.55;;;1.60;;
76761;SDS011;65705;51.032;13.790;2023-08-07T07:03:28;7.63;;;2.30;;
76761;SDS011;65705;51.032;13.790;2023-08-07T07:05:55;4.30;;;1.70;;
76761;SDS011;65705;51.032;13.790;2023-08-07T07:08:20;2.80;;;1.55;;
76761;SDS011;65705;51.032;13.790;2023-08-07T07:10:48;3.25;;;1.88;;
76761;SDS011;65705;51.032;13.790;2023-08-07T07:13:14;4.90;;;1.73;;
76761;SDS011;65705;51.032;13.790;2023-08-07T07:15:40;4.40;;;1.80;;
76761;SDS011;65705;51.032;13.790;2023-08-07T07:18:05;3.17;;;1.58;;
76761;SDS011;65705;51.032;13.790;2023-08-07T07:20:31;4.53;;;1.33;;
76761;SDS011;65705;51.032;13.790;2023-08-07T07:22:57;4.40;;;1.83;;
76761;SDS011;65705;51.032;13.790;2023-08-07T07:25:22;3.70;;;1.58;;
76761;SDS011;65705;51.032;13.790;2023-08-07T07:27:48;3.55;;;1.58;;
76761;SDS011;65705;51.032;13.790;2023-08-07T07:30:14;4.78;;;1.70;;
76761;SDS011;65705;51.032;13.790;2023-08-07T07:32:39;3.70;;;1.50;;
76761;SDS011;65705;51.032;13.790;2023-08-07T07:35:05;2.53;;;1.60;;
76761;SDS011;65705;51.032;13.790;2023-08-07T07:37:31;2.53;;;1.40;;
76761;SDS011;65705;51.032;13.790;2023-08-07T07:39:57;2.75;;;1.50;;
76761;SDS011;65705;51.032;13.790;2023-08-07T07:42:23;3.83;;;1.60;;
76761;SDS011;65705;51.032;13.790;2023-08-07T07:44:48;4.43;;;1.98;;
76761;SDS011;65705;51.032;13.790;2023-08-07T07:47:14;3.03;;;1.30;;
76761;SDS011;65705;51.032;13.790;2023-08-07T07:49:44;2.97;;;1.40;;
76761;SDS011;65705;51.032;13.790;2023-08-07T07:52:13;2.65;;;1.23;;
76761;SDS011;65705;51.032;13.790;2023-08-07T07:54:39;2.85;;;1.10;;
76761;SDS011;65705;51.032;13.790;2023-08-07T07:57:04;5.45;;;1.23;;
76761;SDS011;65705;51.032;13.790;2023-08-07T07:59:30;3.42;;;1.20;;
76761;SDS011;65705;51.032;13.790;2023-08-07T08:01:56;3.47;;;1.52;;
76761;SDS011;65705;51.032;13.790;2023-08-07T08:04:21;5.32;;;1.20;;
76761;SDS011;65705;51.032;13.790;2023-08-07T08:06:47;1.88;;;1.10;;
76761;SDS011;65705;51.032;13.790;2023-08-07T08:09:16;4.07;;;0.98;;
76761;SDS011;65705;51.032;13.790;2023-08-07T08:11:41;3.45;;;1.10;;
76761;SDS011;65705;51.032;13.790;2023-08-07T08:14:07;2.30;;;1.00;;
76761;SDS011;65705;51.032;13.790;2023-08-07T08:16:33;1.17;;;0.80;;
76761;SDS011;65705;51.032;13.790;2023-08-07T08:18:58;6.32;;;1.20;;
76761;SDS011;65705;51.032;13.790;2023-08-07T08:21:24;1.92;;;1.00;;
76761;SDS011;65705;51.032;13.790;2023-08-07T08:23:50;5.30;;;0.70;;
76761;SDS011;65705;51.032;13.790;2023-08-07T08:26:15;4.00;;;0.90;;
76761;SDS011;65705;51.032;13.790;2023-08-07T08:28:41;3.28;;;1.00;;
76761;SDS011;65705;51.032;13.790;2023-08-07T08:31:07;2.55;;;0.80;;
76761;SDS011;65705;51.032;13.790;2023-08-07T08:33:32;3.42;;;1.38;;
76761;SDS011;65705;51.032;13.790;2023-08-07T08:35:58;1.80;;;1.00;;
76761;SDS011;65705;51.032;13.790;2023-08-07T08:38:24;2.00;;;0.95;;
76761;SDS011;65705;51.032;13.790;2023-08-07T08:40:51;4.18;;;1.02;;
76761;SDS011;65705;51.032;13.790;2023-08-07T08:43:17;5.38;;;1.05;;
76761;SDS011;65705;51.032;13.790;2023-08-07T08:45:44;3.22;;;0.88;;
76761;SDS011;65705;51.032;13.790;2023-08-07T08:48:11;4.40;;;1.58;;
76761;SDS011;65705;51.032;13.790;2023-08-07T08:50:43;1.55;;;0.80;;
76761;SDS011;65705;51.032;13.790;2023-08-07T08:53:09;2.97;;;1.00;;
76761;SDS011;65705;51.032;13.790;2023-08-07T08:55:36;3.80;;;1.10;;
76761;SDS011;65705;51.032;13.790;2023-08-07T08:58:02;2.45;;;0.90;;
76761;SDS011;65705;51.032;13.790;2023-08-07T09:00:29;2.25;;;0.80;;
76761;SDS011;65705;51.032;13.790;2023-08-07T09:02:55;1.98;;;1.00;;
76761;SDS011;65705;51.032;13.790;2023-08-07T09:05:22;2.65;;;1.35;;
76761;SDS011;65705;51.032;13.790;2023-08-07T09:07:48;3.15;;;0.90;;
76761;SDS011;65705;51.032;13.790;2023-08-07T09:10:15;3.22;;;0.90;;
76761;SDS011;65705;51.032;13.790;2023-08-07T09:13:00;3.63;;;0.90;;
76761;SDS011;65705;51.032;13.790;2023-08-07T09:15:29;0.88;;;0.68;;
76761;SDS011;65705;51.032;13.790;2023-08-07T09:17:56;3.20;;;1.05;;
76761;SDS011;65705;51.032;13.790;2023-08-07T09:20:24;1.10;;;0.70;;
76761;SDS011;65705;51.032;13.790;2023-08-07T09:22:51;3.10;;;0.73;;
76761;SDS011;65705;51.032;13.790;2023-08-07T09:25:26;2.40;;;0.80;;
76761;SDS011;65705;51.032;13.790;2023-08-07T09:27:56;1.38;;;0.57;;
76761;SDS011;65705;51.032;13.790;2023-08-07T09:30:25;2.65;;;0.82;;
76761;SDS011;65705;51.032;13.790;2023-08-07T09:32:56;1.90;;;0.70;;
76761;SDS011;65705;51.032;13.790;2023-08-07T09:35:22;1.23;;;0.52;;
76761;SDS011;65705;51.032;13.790;2023-08-07T09:37:48;1.95;;;1.00;;
76761;SDS011;65705;51.032;13.790;2023-08-07T09:40:14;1.67;;;0.75;;
76761;SDS011;65705;51.032;13.790;2023-08-07T09:42:41;2.58;;;0.88;;
76761;SDS011;65705;51.032;13.790;2023-08-07T09:50:24;3.65;;;0.90;;
76761;SDS011;65705;51.032;13.790;2023-08-07T09:52:50;2.38;;;0.88;;
76761;SDS011;65705;51.032;13.790;2023-08-07T09:55:16;0.80;;;0.63;;
76761;SDS011;65705;51.032;13.790;2023-08-07T09:57:43;1.95;;;0.70;;
76761;SDS011;65705;51.032;13.790;2023-08-07T10:00:09;3.38;;;0.90;;
76761;SDS011;65705;51.032;13.790;2023-08-07T10:02:42;0.85;;;0.55;;
76761;SDS011;65705;51.032;13.790;2023-08-07T10:05:11;1.77;;;0.70;;
76761;SDS011;65705;51.032;13.790;2023-08-07T10:07:37;2.72;;;1.08;;
76761;SDS011;65705;51.032;13.790;2023-08-07T10:10:04;1.33;;;0.80;;
76761;SDS011;65705;51.032;13.790;2023-08-07T10:12:32;1.55;;;0.73;;
76761;SDS011;65705;51.032;13.790;2023-08-07T10:15:01;1.55;;;0.73;;
76761;SDS011;65705;51.032;13.790;2023-08-07T10:19:54;2.28;;;0.70;;
76761;SDS011;65705;51.032;13.790;2023-08-07T10:22:20;1.80;;;0.60;;
76761;SDS011;65705;51.032;13.790;2023-08-07T10:24:52;1.80;;;0.77;;
76761;SDS011;65705;51.032;13.790;2023-08-07T10:27:19;2.00;;;0.75;;
76761;SDS011;65705;51.032;13.790;2023-08-07T10:29:47;1.33;;;0.70;;
76761;SDS011;65705;51.032;13.790;2023-08-07T10:32:14;1.27;;;0.50;;
76761;SDS011;65705;51.032;13.790;2023-08-07T10:34:47;1.13;;;0.70;;
76761;SDS011;65705;51.032;13.790;2023-08-07T10:40:03;2.90;;;0.80;;
76761;SDS011;65705;51.032;13.790;2023-08-07T10:42:51;2.85;;;0.70;;
76761;SDS011;65705;51.032;13.790;2023-08-07T10:45:24;1.63;;;0.77;;
76761;SDS011;65705;51.032;13.790;2023-08-07T10:50:49;1.42;;;0.80;;
76761;SDS011;65705;51.032;13.790;2023-08-07T10:53:35;2.97;;;0.90;;
76761;SDS011;65705;51.032;13.790;2023-08-07T10:56:03;2.38;;;1.00;;
76761;SDS011;65705;51.032;13.790;2023-08-07T10:58:37;2.25;;;0.80;;
76761;SDS011;65705;51.032;13.790;2023-08-07T11:01:20;4.00;;;0.90;;
76761;SDS011;65705;51.032;13.790;2023-08-07T11:03:50;1.95;;;0.90;;
76761;SDS011;65705;51.032;13.790;2023-08-07T11:06:18;1.48;;;0.77;;
76761;SDS011;65705;51.032;13.790;2023-08-07T11:11:13;1.27;;;0.88;;
76761;SDS011;65705;51.032;13.790;2023-08-07T11:13:39;1.30;;;0.80;;
76761;SDS011;65705;51.032;13.790;2023-08-07T11:16:05;2.35;;;0.80;;
76761;SDS011;65705;51.032;13.790;2023-08-07T11:18:31;5.55;;;0.80;;
76761;SDS011;65705;51.032;13.790;2023-08-07T11:20:58;1.88;;;0.57;;
76761;SDS011;65705;51.032;13.790;2023-08-07T11:23:27;1.35;;;0.55;;
76761;SDS011;65705;51.032;13.790;2023-08-07T11:25:54;1.88;;;0.73;;
76761;SDS011;65705;51.032;13.790;2023-08-07T11:28:20;1.73;;;0.77;;
76761;SDS011;65705;51.032;13.790;2023-08-07T11:30:49;2.83;;;0.80;;
76761;SDS011;65705;51.032;13.790;2023-08-07T11:33:19;2.15;;;0.60;;
76761;SDS011;65705;51.032;13.790;2023-08-07T11:35:45;2.53;;;0.80;;
76761;SDS011;65705;51.032;13.790;2023-08-07T11:38:12;2.90;;;0.82;;
76761;SDS011;65705;51.032;13.790;2023-08-07T11:40:38;1.65;;;0.60;;
76761;SDS011;65705;51.032;13.790;2023-08-07T11:43:04;1.85;;;0.73;;
76761;SDS011;65705;51.032;13.790;2023-08-07T11:45:29;1.25;;;0.70;;
76761;SDS011;65705;51.032;13.790;2023-08-07T11:47:56;2.17;;;0.80;;
76761;SDS011;65705;51.032;13.790;2023-08-07T11:50:27;1.80;;;0.80;;
76761;SDS011;65705;51.032;13.790;2023-08-07T11:52:53;0.98;;;0.50;;
76761;SDS011;65705;51.032;13.790;2023-08-07T11:55:19;2.75;;;0.85;;
76761;SDS011;65705;51.032;13.790;2023-08-07T11:57:48;1.60;;;0.80;;
76761;SDS011;65705;51.032;13.790;2023-08-07T12:00:14;1.15;;;0.50;;
76761;SDS011;65705;51.032;13.790;2023-08-07T12:02:43;1.83;;;0.65;;
76761;SDS011;65705;51.032;13.790;2023-08-07T12:05:10;2.08;;;0.80;;
76761;SDS011;65705;51.032;13.790;2023-08-07T12:07:39;3.65;;;0.70;;
76761;SDS011;65705;51.032;13.790;2023-08-07T12:10:08;4.22;;;0.80;;
76761;SDS011;65705;51.032;13.790;2023-08-07T12:15:12;1.10;;;0.60;;
76761;SDS011;65705;51.032;13.790;2023-08-07T12:17:38;1.60;;;0.88;;
76761;SDS011;65705;51.032;13.790;2023-08-07T12:20:04;2.88;;;0.65;;
76761;SDS011;65705;51.032;13.790;2023-08-07T12:22:35;0.70;;;0.40;;
76761;SDS011;65705;51.032;13.790;2023-08-07T12:25:02;2.67;;;0.50;;
76761;SDS011;65705;51.032;13.790;2023-08-07T12:27:28;2.30;;;0.60;;
76761;SDS011;65705;51.032;13.790;2023-08-07T12:29:54;2.28;;;0.50;;
76761;SDS011;65705;51.032;13.790;2023-08-07T12:32:19;2.03;;;0.52;;
76761;SDS011;65705;51.032;13.790;2023-08-07T12:34:45;0.47;;;0.40;;
76761;SDS011;65705;51.032;13.790;2023-08-07T12:37:11;1.10;;;0.43;;
76761;SDS011;65705;51.032;13.790;2023-08-07T12:39:36;1.30;;;0.50;;
76761;SDS011;65705;51.032;13.790;2023-08-07T12:42:02;0.55;;;0.40;;
76761;SDS011;65705;51.032;13.790;2023-08-07T12:44:30;0.57;;;0.50;;
76761;SDS011;65705;51.032;13.790;2023-08-07T12:46:56;1.23;;;0.50;;
76761;SDS011;65705;51.032;13.790;2023-08-07T12:49:22;0.50;;;0.30;;
76761;SDS011;65705;51.032;13.790;2023-08-07T12:51:49;1.50;;;0.80;;
76761;SDS011;65705;51.032;13.790;2023-08-07T12:54:14;1.02;;;0.38;;
76761;SDS011;65705;51.032;13.790;2023-08-07T12:56:40;0.40;;;0.30;;
76761;SDS011;65705;51.032;13.790;2023-08-07T12:59:06;0.32;;;0.30;;
76761;SDS011;65705;51.032;13.790;2023-08-07T13:01:32;2.03;;;0.50;;
76761;SDS011;65705;51.032;13.790;2023-08-07T13:03:58;0.47;;;0.47;;
76761;SDS011;65705;51.032;13.790;2023-08-07T13:06:23;2.15;;;0.52;;
76761;SDS011;65705;51.032;13.790;2023-08-07T13:08:49;0.80;;;0.43;;
76761;SDS011;65705;51.032;13.790;2023-08-07T13:11:15;1.42;;;0.43;;
76761;SDS011;65705;51.032;13.790;2023-08-07T13:13:40;2.38;;;0.50;;
76761;SDS011;65705;51.032;13.790;2023-08-07T13:16:06;1.02;;;0.50;;
76761;SDS011;65705;51.032;13.790;2023-08-07T13:18:32;0.65;;;0.43;;
76761;SDS011;65705;51.032;13.790;2023-08-07T13:20:58;1.05;;;0.50;;
76761;SDS011;65705;51.032;13.790;2023-08-07T13:23:23;2.03;;;0.40;;
76761;SDS011;65705;51.032;13.790;2023-08-07T13:25:49;1.63;;;0.47;;
76761;SDS011;65705;51.032;13.790;2023-08-07T13:28:15;0.90;;;0.40;;
76761;SDS011;65705;51.032;13.790;2023-08-07T13:30:41;1.67;;;0.57;;
76761;SDS011;65705;51.032;13.790;2023-08-07T13:33:07;1.20;;;0.30;;
76761;SDS011;65705;51.032;13.790;2023-08-07T13:35:32;0.82;;;0.40;;
76761;SDS011;65705;51.032;13.790;2023-08-07T13:37:58;0.60;;;0.40;;
76761;SDS011;65705;51.032;13.790;2023-08-07T13:40:24;0.20;;;0.10;;
76761;SDS011;65705;51.032;13.790;2023-08-07T13:42:50;2.78;;;0.40;;
76761;SDS011;65705;51.032;13.790;2023-08-07T13:45:15;0.47;;;0.30;;
76761;SDS011;65705;51.032;13.790;2023-08-07T13:47:41;2.05;;;0.30;;
76761;SDS011;65705;51.032;13.790;2023-08-07T13:50:07;1.25;;;0.50;;
76761;SDS011;65705;51.032;13.790;2023-08-07T13:52:34;0.30;;;0.30;;
76761;SDS011;65705;51.032;13.790;2023-08-07T13:55:00;1.10;;;0.50;;
76761;SDS011;65705;51.032;13.790;2023-08-07T13:57:26;0.47;;;0.30;;
76761;SDS011;65705;51.032;13.790;2023-08-07T13:59:51;0.50;;;0.45;;
76761;SDS011;65705;51.032;13.790;2023-08-07T14:02:19;1.05;;;0.50;;
76761;SDS011;65705;51.032;13.790;2023-08-07T14:04:45;0.75;;;0.30;;
76761;SDS011;65705;51.032;13.790;2023-08-07T14:07:11;1.85;;;0.60;;
76761;SDS011;65705;51.032;13.790;2023-08-07T14:09:36;2.65;;;0.40;;
76761;SDS011;65705;51.032;13.790;2023-08-07T14:12:02;3.13;;;0.50;;
76761;SDS011;65705;51.032;13.790;2023-08-07T14:14:29;0.70;;;0.40;;
76761;SDS011;65705;51.032;13.790;2023-08-07T14:16:54;3.75;;;0.70;;
76761;SDS011;65705;51.032;13.790;2023-08-07T14:19:23;0.85;;;0.50;;
76761;SDS011;65705;51.032;13.790;2023-08-07T14:21:49;1.48;;;0.50;;
76761;SDS011;65705;51.032;13.790;2023-08-07T14:24:15;0.65;;;0.43;;
76761;SDS011;65705;51.032;13.790;2023-08-07T14:26:42;1.98;;;0.65;;
76761;SDS011;65705;51.032;13.790;2023-08-07T14:29:08;1.48;;;0.47;;
76761;SDS011;65705;51.032;13.790;2023-08-07T14:31:33;1.38;;;0.60;;
76761;SDS011;65705;51.032;13.790;2023-08-07T14:33:59;2.53;;;0.60;;
76761;SDS011;65705;51.032;13.790;2023-08-07T14:36:25;0.73;;;0.57;;
76761;SDS011;65705;51.032;13.790;2023-08-07T14:38:51;3.15;;;1.00;;
76761;SDS011;65705;51.032;13.790;2023-08-07T14:41:17;2.10;;;0.60;;
76761;SDS011;65705;51.032;13.790;2023-08-07T14:43:46;2.00;;;0.93;;
76761;SDS011;65705;51.032;13.790;2023-08-07T14:46:12;2.55;;;1.00;;
76761;SDS011;65705;51.032;13.790;2023-08-07T14:48:39;1.15;;;0.55;;
76761;SDS011;65705;51.032;13.790;2023-08-07T14:51:05;6.20;;;1.27;;
76761;SDS011;65705;51.032;13.790;2023-08-07T14:53:31;2.70;;;0.77;;
76761;SDS011;65705;51.032;13.790;2023-08-07T14:55:56;1.05;;;0.40;;
76761;SDS011;65705;51.032;13.790;2023-08-07T14:58:22;2.00;;;0.45;;
76761;SDS011;65705;51.032;13.790;2023-08-07T15:00:48;1.48;;;0.60;;
76761;SDS011;65705;51.032;13.790;2023-08-07T15:03:15;2.08;;;0.50;;